createdAt,value
2019-01-21T00:01:02.274Z,130.90
2019-01-21T00:03:31.584Z,147.83
2019-01-21T00:06:01.955Z,137.30
2019-01-21T00:08:31.191Z,156.23
2019-01-21T00:11:00.980Z,147.40
2019-01-21T00:13:30.700Z,125.93
2019-01-21T00:15:59.895Z,153.10
2019-01-21T00:18:29.779Z,329.67
2019-01-21T00:21:00.098Z,274.37
2019-01-21T00:23:29.712Z,219.33
2019-01-21T00:25:58.896Z,191.40
2019-01-21T00:28:28.051Z,178.13
2019-01-21T00:30:57.244Z,145.60
2019-01-21T00:33:26.687Z,174.43
2019-01-21T00:35:57.750Z,182.37
2019-01-21T00:38:26.976Z,154.83
2019-01-21T00:40:57.008Z,168.33
2019-01-21T00:43:26.480Z,158.00
2019-01-21T00:45:56.073Z,148.93
2019-01-21T00:48:26.488Z,169.30
2019-01-21T00:50:55.654Z,170.90
2019-01-21T00:53:24.833Z,154.40
2019-01-21T00:55:54.659Z,156.20
2019-01-21T00:58:24.244Z,157.10
2019-01-21T01:00:53.810Z,176.00
2019-01-21T01:03:22.979Z,150.27
2019-01-21T01:05:52.198Z,143.43
2019-01-21T01:08:21.419Z,160.80
2019-01-21T01:10:51.256Z,127.40
2019-01-21T01:13:20.489Z,123.73
2019-01-21T01:15:50.088Z,136.20
2019-01-21T01:18:19.601Z,134.00
2019-01-21T01:20:49.280Z,136.22
2019-01-21T01:23:18.867Z,117.53
2019-01-21T01:25:48.601Z,117.53
2019-01-21T01:28:17.735Z,120.37
2019-01-21T01:30:47.001Z,124.33
2019-01-21T01:33:16.171Z,116.37
2019-01-21T01:35:45.767Z,118.80
2019-01-21T01:38:15.517Z,125.80
2019-01-21T01:40:45.057Z,127.67
2019-01-21T01:43:14.349Z,134.03
2019-01-21T01:45:43.800Z,131.93
2019-01-21T01:48:13.159Z,125.23
2019-01-21T01:50:42.347Z,130.73
2019-01-21T01:53:11.581Z,121.03
2019-01-21T01:55:40.809Z,118.65
2019-01-21T01:58:10.519Z,129.60
2019-01-21T02:00:39.830Z,114.53
2019-01-21T02:03:09.359Z,106.73
2019-01-21T02:05:38.882Z,126.53
2019-01-21T02:08:08.107Z,130.67
2019-01-21T02:10:38.069Z,128.23
2019-01-21T02:13:07.255Z,135.70
2019-01-21T02:15:36.455Z,107.53
2019-01-21T02:18:06.034Z,115.23
2019-01-21T02:20:35.196Z,120.90
2019-01-21T02:23:05.992Z,110.20
2019-01-21T02:25:51.845Z,118.60
2019-01-21T02:28:29.564Z,128.70
2019-01-21T02:31:43.148Z,118.60
2019-01-21T02:34:40.705Z,126.23
2019-01-21T02:37:51.068Z,114.23
2019-01-21T02:40:52.959Z,119.43
2019-01-21T02:44:00.245Z,120.97
2019-01-21T02:47:11.135Z,122.50
2019-01-21T02:50:06.625Z,119.50
2019-01-21T02:53:32.555Z,126.13
2019-01-21T02:56:50.516Z,116.60
2019-01-21T02:59:50.801Z,133.97
2019-01-21T03:02:52.586Z,110.83
2019-01-21T03:05:56.863Z,122.40
2019-01-21T03:09:40.955Z,137.77
2019-01-21T03:13:09.859Z,128.20
2019-01-21T03:16:47.373Z,131.87
2019-01-21T03:19:50.492Z,133.80
2019-01-21T03:23:16.591Z,129.83
2019-01-21T03:26:27.230Z,113.23
2019-01-21T03:29:41.076Z,133.17
2019-01-21T03:33:03.790Z,137.13
2019-01-21T03:35:47.413Z,104.03
2019-01-21T03:38:58.072Z,135.10
2019-01-21T03:42:11.116Z,115.60
2019-01-21T03:45:16.539Z,134.13
2019-01-21T03:48:24.620Z,123.60
2019-01-21T03:51:41.280Z,122.87
2019-01-21T03:54:23.358Z,120.83
2019-01-21T03:57:13.844Z,118.20
2019-01-21T04:00:11.510Z,106.53
2019-01-21T04:03:32.575Z,112.20
2019-01-21T04:06:19.637Z,116.30
2019-01-21T04:09:18.017Z,124.03
2019-01-21T04:12:35.118Z,121.97
2019-01-21T04:15:41.139Z,121.27
2019-01-21T04:19:09.829Z,125.20
2019-01-21T04:21:58.383Z,98.33
2019-01-21T04:25:05.460Z,113.67
2019-01-21T04:28:06.931Z,100.27
2019-01-21T04:31:07.077Z,104.17
2019-01-21T04:34:25.858Z,114.93
2019-01-21T04:37:34.374Z,110.70
2019-01-21T04:40:51.687Z,97.87
2019-01-21T04:44:04.970Z,110.17
2019-01-21T04:47:02.993Z,104.60
2019-01-21T04:50:13.461Z,111.77
2019-01-21T04:53:16.535Z,107.03
2019-01-21T04:56:18.493Z,122.20
2019-01-21T04:59:23.583Z,126.77
2019-01-21T05:02:34.721Z,110.23
2019-01-21T05:05:50.215Z,114.27
2019-01-21T05:08:49.594Z,103.77
2019-01-21T05:11:57.691Z,125.00
2019-01-21T05:15:16.041Z,106.70
2019-01-21T05:18:41.600Z,111.17
2019-01-21T05:21:50.121Z,107.40
2019-01-21T05:24:59.560Z,112.07
2019-01-21T05:27:55.414Z,130.03
2019-01-21T05:30:42.268Z,116.53
2019-01-21T05:33:42.239Z,116.33
2019-01-21T05:36:54.577Z,126.13
2019-01-21T05:40:23.528Z,108.37
2019-01-21T05:43:36.986Z,136.63
2019-01-21T05:46:55.837Z,135.00
2019-01-21T05:50:24.208Z,132.60
2019-01-21T05:53:52.862Z,118.97
2019-01-21T05:57:11.412Z,119.23
2019-01-21T06:00:35.512Z,127.13
2019-01-21T06:03:41.930Z,144.67
2019-01-21T06:06:43.317Z,127.13
2019-01-21T06:09:58.911Z,161.70
2019-01-21T06:13:00.739Z,125.63
2019-01-21T06:16:29.207Z,123.90
2019-01-21T06:19:41.912Z,135.53
2019-01-21T06:22:44.937Z,120.53
2019-01-21T06:25:27.791Z,137.87
2019-01-21T06:29:02.401Z,145.73
2019-01-21T06:32:10.401Z,150.73
2019-01-21T06:35:33.065Z,146.67
2019-01-21T06:38:45.494Z,130.23
2019-01-21T06:41:40.795Z,157.60
2019-01-21T06:44:35.964Z,142.57
2019-01-21T06:47:55.058Z,148.40
2019-01-21T06:50:51.498Z,156.57
2019-01-21T06:53:47.275Z,184.83
2019-01-21T06:56:47.773Z,144.93
2019-01-21T07:00:16.120Z,148.43
2019-01-21T07:03:25.457Z,125.93
2019-01-21T07:06:53.865Z,168.00
2019-01-21T07:09:58.744Z,147.10
2019-01-21T07:13:04.413Z,145.77
2019-01-21T07:15:45.523Z,151.07
2019-01-21T07:18:50.616Z,130.53
2019-01-21T07:21:59.736Z,156.83
2019-01-21T07:24:59.156Z,162.97
2019-01-21T07:28:24.956Z,151.77
2019-01-21T07:31:31.308Z,144.43
2019-01-21T07:34:48.040Z,153.53
2019-01-21T07:37:55.717Z,142.00
2019-01-21T07:41:00.983Z,135.40
2019-01-21T07:44:13.384Z,153.00
2019-01-21T07:47:14.432Z,152.43
2019-01-21T07:50:23.843Z,128.90
2019-01-21T07:53:58.353Z,136.23
2019-01-21T07:57:07.847Z,130.90
2019-01-21T08:00:23.323Z,143.07
2019-01-21T08:03:36.676Z,121.73
2019-01-21T08:06:38.187Z,125.18
2019-01-21T08:09:35.027Z,151.37
2019-01-21T08:12:37.423Z,168.43
2019-01-21T08:15:26.279Z,160.57
2019-01-21T08:18:28.279Z,139.17
2019-01-21T08:21:49.831Z,171.00
2019-01-21T08:24:38.962Z,152.43
2019-01-21T08:27:44.720Z,159.60
2019-01-21T08:30:47.583Z,154.87
2019-01-21T08:33:56.866Z,133.23
2019-01-21T08:36:59.527Z,135.60
2019-01-21T08:40:12.870Z,149.50
2019-01-21T08:43:10.540Z,133.67
2019-01-21T08:46:24.120Z,137.10
2019-01-21T08:49:09.900Z,142.00
2019-01-21T08:52:20.303Z,148.07
2019-01-21T08:55:12.851Z,129.87
2019-01-21T08:58:44.604Z,137.63
2019-01-21T09:01:53.677Z,152.10
2019-01-21T09:04:44.421Z,145.67
2019-01-21T09:08:09.087Z,141.73
2019-01-21T09:11:01.626Z,128.67
2019-01-21T09:13:53.189Z,142.83
2019-01-21T09:17:15.931Z,128.90
2019-01-21T09:20:21.713Z,140.83
2019-01-21T09:23:41.263Z,138.30
2019-01-21T09:26:33.578Z,118.50
2019-01-21T09:29:32.229Z,140.33
2019-01-21T09:32:15.511Z,154.10
2019-01-21T09:35:10.178Z,139.57
2019-01-21T09:38:22.662Z,148.67
2019-01-21T09:41:41.781Z,151.03
2019-01-21T09:44:45.638Z,129.70
2019-01-21T09:47:13.616Z,123.10
2019-01-21T09:49:43.787Z,138.70
2019-01-21T09:52:17.584Z,162.80
2019-01-21T09:54:46.755Z,149.20
2019-01-21T09:57:21.977Z,131.63
2019-01-21T09:59:54.071Z,137.57
2019-01-21T10:02:38.241Z,139.70
2019-01-21T10:05:13.238Z,148.10
2019-01-21T10:08:28.405Z,125.33
2019-01-21T10:11:29.644Z,144.05
2019-01-21T10:14:39.047Z,153.10
2019-01-21T10:17:31.467Z,144.47
2019-01-21T10:20:27.124Z,141.83
2019-01-21T10:23:29.493Z,141.17
2019-01-21T10:26:26.372Z,130.03
2019-01-21T10:29:44.888Z,129.40
2019-01-21T10:33:06.596Z,134.87
2019-01-21T10:36:10.337Z,134.93
2019-01-21T10:39:41.782Z,122.13
2019-01-21T10:42:43.628Z,122.72
2019-01-21T10:45:24.408Z,132.33
2019-01-21T10:48:29.102Z,123.90
2019-01-21T10:51:27.403Z,129.30
2019-01-21T10:54:22.095Z,119.80
2019-01-21T10:57:24.333Z,116.37
2019-01-21T11:00:30.544Z,114.20
2019-01-21T11:03:20.733Z,130.10
2019-01-21T11:06:35.782Z,118.77
2019-01-21T11:09:26.685Z,112.87
2019-01-21T11:12:25.724Z,102.90
2019-01-21T11:15:47.537Z,99.53
2019-01-21T11:18:48.938Z,126.23
2019-01-21T11:21:48.129Z,113.37
2019-01-21T11:24:51.532Z,113.13
2019-01-21T11:27:59.487Z,95.27
2019-01-21T11:31:11.179Z,107.30
2019-01-21T11:34:24.265Z,99.53
2019-01-21T11:37:40.975Z,101.43
2019-01-21T11:40:57.146Z,115.30
2019-01-21T11:43:56.837Z,100.53
2019-01-21T11:47:19.631Z,110.50
2019-01-21T11:50:10.645Z,99.23
2019-01-21T11:53:32.905Z,102.03
2019-01-21T11:56:46.670Z,105.40
2019-01-21T12:00:11.380Z,105.20
2019-01-21T12:03:07.865Z,99.53
2019-01-21T12:05:53.186Z,95.87
2019-01-21T12:09:13.173Z,97.93
2019-01-21T12:11:53.447Z,98.90
2019-01-21T12:15:00.723Z,82.73
2019-01-21T12:18:23.271Z,83.40
2019-01-21T12:21:38.437Z,86.57
2019-01-21T12:24:22.348Z,87.73
2019-01-21T12:27:18.267Z,92.10
2019-01-21T12:30:31.316Z,79.60
2019-01-21T12:33:50.589Z,90.13
2019-01-21T12:36:37.904Z,71.30
2019-01-21T12:39:40.638Z,82.63
2019-01-21T12:42:51.192Z,80.12
2019-01-21T12:45:46.847Z,77.73
2019-01-21T12:48:31.616Z,71.63
2019-01-21T12:51:42.478Z,75.10
2019-01-21T12:55:10.941Z,68.80
2019-01-21T12:58:26.943Z,62.67
2019-01-21T13:01:24.244Z,74.43
2019-01-21T13:04:03.576Z,74.67
2019-01-21T13:07:05.761Z,81.02
2019-01-21T13:10:22.002Z,64.07
2019-01-21T13:13:34.120Z,64.87
2019-01-21T13:16:42.493Z,71.97
2019-01-21T13:20:00.776Z,72.50
2019-01-21T13:23:20.216Z,65.20
2019-01-21T13:26:36.322Z,69.00
2019-01-21T13:30:04.839Z,62.80
2019-01-21T13:32:53.629Z,67.57
2019-01-21T13:36:00.474Z,65.27
2019-01-21T13:38:53.421Z,56.40
2019-01-21T13:41:48.447Z,82.70
2019-01-21T13:44:49.871Z,62.47
2019-01-21T13:48:00.291Z,67.37
2019-01-21T13:51:04.494Z,63.23
2019-01-21T13:54:19.858Z,65.63
2019-01-21T13:57:14.017Z,66.07
2019-01-21T14:00:27.552Z,61.80
2019-01-21T14:03:13.411Z,63.10
2019-01-21T14:06:05.736Z,60.28
2019-01-21T14:09:24.895Z,64.10
2019-01-21T14:12:25.471Z,67.23
2019-01-21T14:15:25.356Z,66.10
2019-01-21T14:18:22.591Z,66.13
2019-01-21T14:21:19.932Z,70.10
2019-01-21T14:24:20.472Z,67.60
2019-01-21T14:27:05.775Z,66.67
2019-01-21T14:30:20.116Z,58.30
2019-01-21T14:33:20.925Z,58.20
2019-01-21T14:36:28.908Z,68.77
2019-01-21T14:39:21.035Z,58.90
2019-01-21T14:42:45.872Z,60.93
2019-01-21T14:45:37.842Z,55.30
2019-01-21T14:48:51.307Z,61.80
2019-01-21T14:52:01.906Z,67.17
2019-01-21T14:55:07.465Z,57.33
2019-01-21T14:58:11.164Z,56.60
2019-01-21T15:01:30.298Z,65.60
2019-01-21T15:04:28.203Z,57.93
2019-01-21T15:07:14.685Z,52.40
2019-01-21T15:10:25.508Z,60.73
2019-01-21T15:13:38.380Z,58.90
2019-01-21T15:16:22.816Z,53.73
2019-01-21T15:19:32.148Z,61.93
2019-01-21T15:22:39.262Z,56.07
2019-01-21T15:26:05.439Z,61.80
2019-01-21T15:28:46.979Z,62.00
2019-01-21T15:32:12.158Z,58.47
2019-01-21T15:35:26.111Z,55.90
2019-01-21T15:38:26.034Z,60.57
2019-01-21T15:41:31.430Z,57.83
2019-01-21T15:44:30.637Z,63.00
2019-01-21T15:47:54.956Z,67.20
2019-01-21T15:51:05.024Z,59.90
2019-01-21T15:54:07.216Z,58.67
2019-01-21T15:57:32.219Z,68.17
2019-01-21T16:00:43.238Z,65.90
2019-01-21T16:03:45.945Z,73.63
2019-01-21T16:06:44.622Z,61.80
2019-01-21T16:09:45.925Z,65.30
2019-01-21T16:12:38.731Z,70.20
2019-01-21T16:15:31.728Z,71.20
2019-01-21T16:18:28.156Z,71.50
2019-01-21T16:21:26.921Z,71.47
2019-01-21T16:24:26.291Z,79.37
2019-01-21T16:27:04.935Z,87.90
2019-01-21T16:29:39.611Z,93.23
2019-01-21T16:32:29.429Z,79.63
2019-01-21T16:35:37.792Z,81.77
2019-01-21T16:38:41.626Z,100.73
2019-01-21T16:41:51.060Z,94.27
2019-01-21T16:44:20.601Z,87.93
2019-01-21T16:46:50.352Z,97.97
2019-01-21T16:49:19.577Z,99.73
2019-01-21T16:51:49.046Z,86.33
2019-01-21T16:54:18.720Z,87.20
2019-01-21T16:56:47.872Z,77.83
2019-01-21T16:59:17.084Z,89.63
2019-01-21T17:01:46.294Z,76.17
2019-01-21T17:04:15.825Z,75.00
2019-01-21T17:06:45.144Z,73.00
2019-01-21T17:09:14.314Z,75.70
2019-01-21T17:11:43.890Z,84.47
2019-01-21T17:14:13.428Z,88.33
2019-01-21T17:16:42.945Z,72.53
2019-01-21T17:19:12.377Z,82.57
2019-01-21T17:21:41.649Z,78.60
2019-01-21T17:24:10.523Z,83.50
2019-01-21T17:26:40.181Z,73.83
2019-01-21T17:29:09.763Z,80.77
2019-01-21T17:31:38.945Z,80.37
2019-01-21T17:34:08.157Z,74.60
2019-01-21T17:36:37.790Z,81.60
2019-01-21T17:39:08.953Z,72.57
2019-01-21T17:41:38.140Z,79.80
2019-01-21T17:44:07.472Z,77.17
2019-01-21T17:46:36.658Z,86.00
2019-01-21T17:49:05.840Z,82.90
2019-01-21T17:51:35.420Z,78.83
2019-01-21T17:54:04.811Z,83.80
2019-01-21T17:56:37.075Z,75.83
2019-01-21T17:59:06.318Z,83.80
2019-01-21T18:01:39.368Z,77.73
2019-01-21T18:04:06.846Z,73.13
2019-01-21T18:06:36.050Z,82.53
2019-01-21T18:09:08.888Z,77.03
2019-01-21T18:11:41.464Z,80.23
2019-01-21T18:14:09.470Z,78.07
2019-01-21T18:16:38.647Z,77.25
2019-01-21T18:19:07.976Z,80.30
2019-01-21T18:21:40.326Z,65.57
2019-01-21T18:24:08.389Z,73.23
2019-01-21T18:26:37.938Z,78.83
2019-01-21T18:29:07.498Z,73.43
2019-01-21T18:31:36.937Z,86.23
2019-01-21T18:34:06.432Z,69.30
2019-01-21T18:36:35.668Z,69.23
2019-01-21T18:39:08.167Z,74.60
2019-01-21T18:41:37.434Z,73.07
2019-01-21T18:44:07.028Z,70.37
2019-01-21T18:46:36.639Z,81.57
2019-01-21T18:49:06.096Z,84.87
2019-01-21T18:51:35.516Z,81.40
2019-01-21T18:54:05.117Z,73.63
2019-01-21T18:56:34.359Z,90.23
2019-01-21T18:59:03.582Z,73.73
2019-01-21T19:01:33.090Z,73.27
2019-01-21T19:04:03.068Z,67.07
2019-01-21T19:06:32.765Z,76.87
2019-01-21T19:09:01.991Z,77.10
2019-01-21T19:11:31.250Z,64.13
2019-01-21T19:14:00.433Z,86.53
2019-01-21T19:16:29.618Z,75.90
2019-01-21T19:18:59.532Z,80.77
2019-01-21T19:21:29.183Z,83.67
2019-01-21T19:23:58.357Z,70.90
2019-01-21T19:26:27.556Z,85.63
2019-01-21T19:28:56.774Z,73.63
2019-01-21T19:31:25.976Z,95.43
2019-01-21T19:33:55.395Z,87.87
2019-01-21T19:36:24.875Z,90.77
2019-01-21T19:38:54.149Z,75.10
2019-01-21T19:41:23.714Z,67.67
2019-01-21T19:43:53.276Z,60.73
2019-01-21T19:46:22.827Z,67.90
2019-01-21T19:48:51.980Z,64.30
2019-01-21T19:51:21.865Z,71.30
2019-01-21T19:53:51.330Z,66.00
2019-01-21T19:56:20.524Z,72.70
2019-01-21T19:58:49.702Z,70.87
2019-01-21T20:01:19.575Z,68.27
2019-01-21T20:03:48.867Z,72.43
2019-01-21T20:06:18.085Z,66.70
2019-01-21T20:08:47.330Z,65.97
2019-01-21T20:11:16.560Z,59.10
2019-01-21T20:13:47.049Z,72.70
2019-01-21T20:16:16.416Z,62.00
2019-01-21T20:18:46.119Z,66.07
2019-01-21T20:21:15.311Z,62.90
2019-01-21T20:23:45.152Z,63.27
2019-01-21T20:26:14.623Z,61.37
2019-01-21T20:28:43.800Z,58.67
2019-01-21T20:31:13.349Z,57.30
2019-01-21T20:33:42.963Z,62.63
2019-01-21T20:36:12.331Z,69.37
2019-01-21T20:38:41.884Z,59.03
2019-01-21T20:41:11.475Z,62.93
2019-01-21T20:43:41.115Z,58.67
2019-01-21T20:46:10.494Z,67.00
2019-01-21T20:48:40.119Z,55.77
2019-01-21T20:51:09.409Z,62.87
2019-01-21T20:53:38.864Z,67.30
2019-01-21T20:56:08.370Z,62.77
2019-01-21T20:58:37.562Z,63.60
2019-01-21T21:01:06.772Z,54.70
2019-01-21T21:03:36.097Z,71.67
2019-01-21T21:06:05.840Z,62.30
2019-01-21T21:08:35.415Z,63.17
2019-01-21T21:11:05.175Z,64.40
2019-01-21T21:13:34.747Z,67.37
2019-01-21T21:16:04.025Z,65.70
2019-01-21T21:18:33.260Z,57.03
2019-01-21T21:21:03.109Z,66.43
2019-01-21T21:23:32.401Z,57.53
2019-01-21T21:26:01.658Z,60.73
2019-01-21T21:28:31.340Z,69.03
2019-01-21T21:31:00.590Z,75.17
2019-01-21T21:33:30.013Z,71.87
2019-01-21T21:35:59.349Z,61.87
2019-01-21T21:38:28.990Z,70.73
2019-01-21T21:40:58.386Z,71.20
2019-01-21T21:43:27.747Z,63.63
2019-01-21T21:45:57.057Z,70.63
2019-01-21T21:48:31.757Z,61.20
2019-01-21T21:50:57.878Z,65.60
2019-01-21T21:53:27.142Z,80.77
2019-01-21T21:55:56.560Z,68.23
2019-01-21T21:58:25.822Z,70.30
2019-01-21T22:00:55.472Z,72.10
2019-01-21T22:03:24.842Z,70.70
2019-01-21T22:05:54.385Z,67.97
2019-01-21T22:08:24.024Z,61.77
2019-01-21T22:10:53.643Z,65.43
2019-01-21T22:13:22.943Z,77.60
2019-01-21T22:15:52.611Z,86.60
2019-01-21T22:18:21.875Z,73.43
2019-01-21T22:20:51.664Z,67.47
2019-01-21T22:23:20.911Z,66.60
2019-01-21T22:25:50.083Z,71.60
2019-01-21T22:28:19.329Z,71.43
2019-01-21T22:30:48.548Z,72.13
2019-01-21T22:33:18.133Z,69.47
2019-01-21T22:35:47.379Z,65.23
2019-01-21T22:38:16.587Z,76.20
2019-01-21T22:40:46.130Z,63.87
2019-01-21T22:43:15.404Z,73.80
2019-01-21T22:45:45.152Z,75.63
2019-01-21T22:48:14.651Z,68.93
2019-01-21T22:50:43.852Z,65.53
2019-01-21T22:53:13.332Z,70.53
2019-01-21T22:55:43.017Z,74.30
2019-01-21T22:58:12.612Z,66.67
2019-01-21T23:01:00.247Z,74.30
2019-01-21T23:03:30.617Z,78.27
2019-01-21T23:05:59.902Z,75.17
2019-01-21T23:08:29.405Z,72.37
2019-01-21T23:10:58.586Z,81.47
2019-01-21T23:13:28.265Z,69.03
2019-01-21T23:15:57.472Z,76.40
2019-01-21T23:18:27.169Z,75.20
2019-01-21T23:20:56.766Z,64.23
2019-01-21T23:23:25.935Z,74.83
2019-01-21T23:25:55.152Z,64.93
2019-01-21T23:28:24.672Z,76.63
2019-01-21T23:30:54.163Z,67.00
2019-01-21T23:33:23.692Z,71.90
2019-01-21T23:35:53.107Z,72.47
2019-01-21T23:38:22.580Z,73.90
2019-01-21T23:40:51.800Z,68.87
2019-01-21T23:43:21.006Z,71.10
2019-01-21T23:45:50.881Z,73.33
2019-01-21T23:48:20.425Z,76.67
2019-01-21T23:50:51.024Z,83.37
2019-01-21T23:53:20.260Z,73.50
2019-01-21T23:55:49.858Z,73.67
2019-01-21T23:58:19.801Z,73.20
